This is the latest recevied weather packets stored in our database for station/object AD7ZD. If no packets are shown the sender has not sent any weather packets the latest 10 day(s).
| Time | Temp. | Humidity | Pressure | Rain* | Wind** | Luminosity | Snow |
|---|---|---|---|---|---|---|---|
| 1778024743 | 18.33° C | 45% | 1010 hPa | 0 mm | - | 417 W/m² | - |
| 1778024440 | 17.22° C | 46% | 1010.2 hPa | 0 mm | - | 256 W/m² | - |
| 1778024137 | 17.78° C | 44% | 1010 hPa | 0 mm | - | 440 W/m² | - |
| 1778023835 | 18.33° C | 46% | 1010.2 hPa | 0 mm | - | 443 W/m² | - |
| 1778023532 | 17.22° C | 46% | 1010.3 hPa | 0 mm | - | 439 W/m² | - |
| 1778023230 | 17.78° C | 46% | 1010.1 hPa | 0 mm | - | 498 W/m² | - |
| 1778022926 | 17.22° C | 47% | 1010.5 hPa | 0 mm | - | 505 W/m² | - |
| 1778022625 | 16.67° C | 47% | 1010.3 hPa | 0 mm | - | 361 W/m² | - |
| 1778022322 | 17.22° C | 48% | 1010.5 hPa | 0 mm | - | 571 W/m² | - |
| 1778022018 | 17.22° C | 48% | 1010.6 hPa | 0 mm | - | 355 W/m² | - |
| 1778021715 | 17.78° C | 46% | 1010.5 hPa | 0 mm | - | 476 W/m² | - |
| 1778021411 | 18.33° C | 45% | 1010.8 hPa | 0 mm | - | 522 W/m² | - |
| 1778021109 | 17.78° C | 45% | 1010.5 hPa | 0 mm | - | 520 W/m² | - |
| 1778020806 | 16.11° C | 48% | 1010.5 hPa | 0 mm | - | 459 W/m² | - |
| 1778020503 | 16.11° C | 49% | 1010.6 hPa | 0 mm | - | 349 W/m² | - |
| 1778020199 | 16.67° C | 49% | 1010.5 hPa | 0 mm | - | 604 W/m² | - |
| 1778019895 | 16.67° C | 48% | 1010.8 hPa | 0 mm | - | 597 W/m² | - |
| 1778019591 | 16.67° C | 48% | 1010.8 hPa | 0 mm | - | 573 W/m² | - |
| 1778019288 | 16.67° C | 51% | 1010.6 hPa | 0 mm | - | 603 W/m² | - |
| 1778018985 | 16.67° C | 50% | 1010.8 hPa | 0 mm | - | 513 W/m² | - |
| 1778018682 | 17.22° C | 49% | 1010.9 hPa | 0 mm | - | 689 W/m² | - |
| 1778018380 | 16.11° C | 52% | 1010.9 hPa | 0 mm | - | 543 W/m² | - |
| 1778018078 | 16.11° C | 53% | 1010.8 hPa | 0 mm | - | 612 W/m² | - |
| 1778017775 | 16.11° C | 56% | 1010.8 hPa | 0 mm | - | 652 W/m² | - |
| 1778017473 | 16.67° C | 54% | 1011.1 hPa | 0 mm | - | 631 W/m² | - |
* Rain latest hour (hover to see other rain measurements)
** Current wind speed in m/s (hover to see current wind gust speed)